Time;durP1;ratioP1;P1;durP2;ratioP2;P2;SDS_P1;SDS_P2;PMS_P1;PMS_P2;Temp;Humidity;BMP_temperature;BMP_pressure;BME280_temperature;BME280_humidity;BME280_pressure;Samples;Min_cycle;Max_cycle;Signal;HPM_P1;HPM_P2
2023/04/15 00:00:42;;;;;;;9.50;5.43;;;230.90;2252.80;;;;;;5013977;28;20041;-70
2023/04/15 00:03:08;;;;;;;14.85;5.72;;;230.80;2252.80;;;;;;5013679;28;20022;-76
2023/04/15 00:05:33;;;;;;;;;;;230.80;2252.80;;;;;;5014401;28;20076;-76
2023/04/15 00:08:00;;;;;;;13.05;6.65;;;230.70;2252.80;;;;;;5013804;28;19963;-69
2023/04/15 00:10:26;;;;;;;14.43;7.25;;;230.80;2252.80;;;;;;5014014;28;20030;-69
2023/04/15 00:12:52;;;;;;;14.32;7.63;;;230.80;2252.80;;;;;;5014249;28;20036;-72
2023/04/15 00:15:18;;;;;;;14.40;7.32;;;230.80;2252.80;;;;;;5014005;28;20100;-69
2023/04/15 00:17:44;;;;;;;;;;;230.80;2252.80;;;;;;5014156;28;20037;-70
2023/04/15 00:20:10;;;;;;;12.23;6.10;;;230.90;2252.80;;;;;;5013957;28;19906;-77
2023/04/15 00:22:36;;;;;;;;;;;230.80;2252.80;;;;;;5014110;28;20263;-71
2023/04/15 00:25:02;;;;;;;11.68;7.63;;;230.70;2252.80;;;;;;5013684;28;19909;-69
2023/04/15 00:27:28;;;;;;;9.70;6.20;;;230.70;2252.80;;;;;;5013543;28;20080;-69
2023/04/15 00:29:55;;;;;;;8.52;5.65;;;230.80;2252.80;;;;;;5013754;28;20065;-70
2023/04/15 00:32:20;;;;;;;9.93;5.82;;;230.80;2252.80;;;;;;5013945;28;20141;-69
2023/04/15 00:34:46;;;;;;;10.07;5.78;;;230.90;2252.80;;;;;;5014073;28;20105;-73
2023/04/15 00:37:12;;;;;;;;;;;230.90;2252.80;;;;;;5014083;28;20029;-69
2023/04/15 00:39:38;;;;;;;12.90;8.25;;;231.00;2252.80;;;;;;5013529;28;19905;-69
2023/04/15 00:42:04;;;;;;;;;;;231.00;2252.80;;;;;;5013697;28;20029;-68
2023/04/15 00:44:30;;;;;;;17.17;8.23;;;230.90;2252.80;;;;;;5013195;28;20000;-70
2023/04/15 00:46:56;;;;;;;12.07;6.95;;;230.90;2252.80;;;;;;5013429;28;20463;-69
2023/04/15 00:49:22;;;;;;;14.07;6.35;;;230.90;2252.80;;;;;;5013328;28;20029;-69
2023/04/15 00:51:48;;;;;;;10.90;6.05;;;230.90;2252.80;;;;;;5013195;28;20033;-69
2023/04/15 00:54:15;;;;;;;12.02;6.13;;;230.90;2252.80;;;;;;5013752;28;20038;-69
2023/04/15 00:56:41;;;;;;;11.18;6.63;;;230.70;2252.80;;;;;;5013414;28;20018;-69
2023/04/15 00:59:07;;;;;;;10.15;5.90;;;230.80;2252.80;;;;;;5013067;28;20470;-69
2023/04/15 01:01:37;;;;;;;7.93;5.00;;;230.70;2252.80;;;;;;5013244;28;20057;-69
2023/04/15 01:04:03;;;;;;;9.55;5.30;;;230.60;2252.80;;;;;;5013237;28;20489;-69
2023/04/15 01:06:31;;;;;;;9.10;5.57;;;230.70;2252.80;;;;;;5013187;28;20026;-69
2023/04/15 01:08:57;;;;;;;9.27;5.78;;;230.70;2252.80;;;;;;5013427;28;20068;-69
2023/04/15 01:11:24;;;;;;;11.65;5.07;;;230.70;2252.80;;;;;;5013086;28;20042;-69
2023/04/15 01:13:51;;;;;;;8.65;4.85;;;230.90;2252.80;;;;;;5014198;28;20399;-69
2023/04/15 01:16:18;;;;;;;8.25;5.25;;;230.70;2252.80;;;;;;5017173;28;20420;-69
2023/04/15 01:18:44;;;;;;;12.07;6.05;;;230.80;2252.80;;;;;;5016914;28;20025;-69
2023/04/15 01:21:10;;;;;;;10.32;4.68;;;230.90;2252.80;;;;;;5016979;28;20028;-68
2023/04/15 01:23:37;;;;;;;6.47;4.53;;;230.90;2252.80;;;;;;5017032;28;20468;-69
2023/04/15 01:26:04;;;;;;;7.97;4.93;;;230.90;2252.80;;;;;;5016795;28;20072;-69
2023/04/15 01:28:31;;;;;;;7.13;4.70;;;230.90;2252.80;;;;;;5016615;28;20026;-69
2023/04/15 01:31:07;;;;;;;6.93;4.20;;;230.90;2252.80;;;;;;5016473;28;20050;-69
2023/04/15 01:33:33;;;;;;;7.55;4.93;;;230.90;2252.80;;;;;;5031613;28;20548;-69
2023/04/15 01:35:59;;;;;;;7.72;4.97;;;230.90;2252.80;;;;;;5016617;28;20029;-69
2023/04/15 01:38:26;;;;;;;7.05;4.80;;;231.00;2252.80;;;;;;5016702;28;20030;-69
2023/04/15 01:40:52;;;;;;;7.50;4.80;;;230.80;2252.80;;;;;;5016562;28;20131;-69
2023/04/15 01:43:18;;;;;;;8.65;4.75;;;230.60;2252.80;;;;;;5016279;28;20029;-69
2023/04/15 01:45:44;;;;;;;9.73;5.03;;;230.60;2252.80;;;;;;5016521;28;20018;-69
2023/04/15 01:48:11;;;;;;;7.18;5.05;;;230.70;2252.80;;;;;;5016327;28;20064;-69
2023/04/15 01:50:37;;;;;;;10.07;6.10;;;230.70;2252.80;;;;;;5016377;28;20477;-69
2023/04/15 01:53:03;;;;;;;13.43;8.15;;;230.90;2252.80;;;;;;5016198;28;20132;-74
2023/04/15 01:55:29;;;;;;;10.23;6.10;;;230.90;2252.80;;;;;;5016348;28;20022;-68
2023/04/15 01:57:55;;;;;;;9.25;6.22;;;230.90;2252.80;;;;;;5016124;28;20354;-69
2023/04/15 02:00:21;;;;;;;8.15;5.10;;;230.90;2252.80;;;;;;5015887;28;20026;-69
2023/04/15 02:02:48;;;;;;;10.07;5.53;;;231.00;2252.80;;;;;;5016087;28;20529;-68
2023/04/15 02:05:15;;;;;;;8.15;4.63;;;231.00;2252.80;;;;;;5016064;28;20026;-69
2023/04/15 02:07:42;;;;;;;7.05;4.70;;;230.90;2252.80;;;;;;5016037;28;20022;-69
2023/04/15 02:10:09;;;;;;;7.60;4.32;;;230.70;2252.80;;;;;;5015907;28;20028;-70
2023/04/15 02:12:35;;;;;;;7.90;4.57;;;230.70;2252.80;;;;;;5015735;28;20041;-70
2023/04/15 02:15:01;;;;;;;8.15;5.13;;;230.70;2252.80;;;;;;5015952;28;20026;-72
2023/04/15 02:17:26;;;;;;;;;;;230.60;2252.80;;;;;;5031540;28;20428;-70
2023/04/15 02:19:55;;;;;;;9.82;6.15;;;230.60;2252.80;;;;;;5015775;28;19913;-70
2023/04/15 02:22:21;;;;;;;7.50;5.18;;;230.60;2252.80;;;;;;5016001;28;20034;-69
2023/04/15 02:24:47;;;;;;;12.63;5.38;;;230.70;2252.80;;;;;;5015366;28;20504;-69
2023/04/15 02:27:17;;;;;;;8.38;4.90;;;230.70;2252.80;;;;;;5015776;28;20052;-69
2023/04/15 02:29:43;;;;;;;9.10;5.40;;;230.70;2252.80;;;;;;5015621;28;20508;-69
2023/04/15 02:32:10;;;;;;;9.18;4.78;;;230.80;2252.80;;;;;;5015165;28;20089;-69
2023/04/15 02:34:40;;;;;;;12.85;5.28;;;230.70;2252.80;;;;;;5015459;28;20053;-69
2023/04/15 02:37:06;;;;;;;14.23;6.68;;;230.70;2252.80;;;;;;5015553;28;20034;-69
2023/04/15 02:39:32;;;;;;;9.68;5.90;;;230.60;2252.80;;;;;;5015430;28;20014;-75
2023/04/15 02:41:59;;;;;;;8.75;5.40;;;230.50;2252.80;;;;;;5015313;28;20026;-70
2023/04/15 02:44:26;;;;;;;11.32;6.47;;;230.50;2252.80;;;;;;5015433;28;20018;-76
2023/04/15 02:46:53;;;;;;;10.93;6.18;;;230.40;2252.80;;;;;;5015564;28;20022;-69
2023/04/15 02:49:20;;;;;;;9.93;6.07;;;230.40;2252.80;;;;;;5015445;28;20108;-69
2023/04/15 02:51:50;;;;;;;11.55;5.97;;;230.50;2252.80;;;;;;5015237;28;20188;-69
2023/04/15 02:54:19;;;;;;;10.82;6.32;;;230.60;2252.80;;;;;;5015237;28;20037;-76
2023/04/15 02:56:45;;;;;;;8.18;5.72;;;230.70;2252.80;;;;;;5014940;28;20025;-69
2023/04/15 02:59:14;;;;;;;10.13;6.10;;;230.80;2252.80;;;;;;5014911;28;20026;-69
2023/04/15 03:01:39;;;;;;;9.45;5.80;;;230.90;2252.80;;;;;;5014716;28;20442;-69
2023/04/15 03:04:07;;;;;;;10.68;5.90;;;230.90;2252.80;;;;;;5014691;28;20061;-75
2023/04/15 03:06:33;;;;;;;11.43;6.15;;;230.80;2252.80;;;;;;5014751;28;20484;-69
2023/04/15 03:09:01;;;;;;;9.55;6.00;;;230.90;2252.80;;;;;;5015010;28;20037;-69
2023/04/15 03:11:28;;;;;;;8.10;6.35;;;231.00;2252.80;;;;;;5014466;28;20045;-69
2023/04/15 03:13:54;;;;;;;12.85;7.32;;;231.00;2252.80;;;;;;5014900;28;20446;-69
2023/04/15 03:16:20;;;;;;;9.77;6.30;;;230.90;2252.80;;;;;;5014534;28;20026;-69
2023/04/15 03:18:45;;;;;;;10.82;6.88;;;230.70;2252.80;;;;;;5014530;28;20033;-70
2023/04/15 03:21:11;;;;;;;;;;;230.60;2252.80;;;;;;5015115;28;20022;-69
2023/04/15 03:23:36;;;;;;;11.63;7.22;;;230.50;2252.80;;;;;;5014506;28;19975;-69
2023/04/15 03:26:03;;;;;;;15.38;7.82;;;230.40;2252.80;;;;;;5014581;28;20056;-69
2023/04/15 03:28:30;;;;;;;12.95;8.10;;;205.70;2252.80;;;;;;5014254;28;20018;-69
2023/04/15 03:30:55;;;;;;;13.95;7.95;;;205.70;2252.80;;;;;;5014053;28;20084;-69
2023/04/15 03:33:21;;;;;;;12.85;8.52;;;205.70;2252.80;;;;;;5014275;28;20390;-69
2023/04/15 03:35:47;;;;;;;;;;;230.40;2252.80;;;;;;5014427;28;20022;-69
2023/04/15 03:38:13;;;;;;;15.75;9.05;;;230.50;2252.80;;;;;;5014008;28;19939;-69
2023/04/15 03:40:42;;;;;;;;;;;230.40;2252.80;;;;;;5014665;28;20033;-69
2023/04/15 03:43:07;;;;;;;14.20;8.48;;;230.40;2252.80;;;;;;5014049;28;20411;-69
2023/04/15 03:45:33;;;;;;;14.43;9.10;;;205.60;2252.80;;;;;;5014246;28;20113;-69
2023/04/15 03:47:59;;;;;;;;;;;205.60;2252.80;;;;;;5014626;28;20497;-69
2023/04/15 03:50:25;;;;;;;13.23;8.85;;;205.50;2252.80;;;;;;5014100;28;19912;-69
2023/04/15 03:52:51;;;;;;;12.85;8.02;;;205.50;2252.80;;;;;;5013781;28;20049;-69
2023/04/15 03:55:16;;;;;;;13.50;8.02;;;205.50;2252.80;;;;;;5014061;28;20030;-69
2023/04/15 03:57:42;;;;;;;;;;;205.40;2252.80;;;;;;5014323;28;20363;-69
2023/04/15 04:00:11;;;;;;;13.70;8.93;;;205.40;2252.80;;;;;;5013438;28;19992;-69
2023/04/15 04:02:37;;;;;;;14.55;9.18;;;205.40;2252.80;;;;;;5013863;28;20032;-69
2023/04/15 04:05:03;;;;;;;17.05;9.65;;;205.40;2252.80;;;;;;5013718;28;20108;-69
2023/04/15 04:07:29;;;;;;;15.18;10.05;;;205.40;2252.80;;;;;;5014724;28;20068;-69
2023/04/15 04:09:56;;;;;;;18.75;11.20;;;205.30;2252.80;;;;;;5029543;28;20409;-69
2023/04/15 04:12:22;;;;;;;20.67;10.52;;;205.30;2252.80;;;;;;5013001;28;20029;-69
2023/04/15 04:14:48;;;;;;;16.50;10.45;;;205.20;2252.80;;;;;;5013591;28;20029;-76
2023/04/15 04:17:13;;;;;;;;;;;205.20;2252.80;;;;;;5014030;28;20026;-69
2023/04/15 04:19:39;;;;;;;22.08;12.98;;;205.20;2252.80;;;;;;5013691;28;19910;-69
2023/04/15 04:22:05;;;;;;;;;;;205.30;2252.80;;;;;;5013675;28;20099;-69
2023/04/15 04:24:31;;;;;;;22.10;11.05;;;205.40;2252.80;;;;;;5013548;28;20011;-70
2023/04/15 04:26:56;;;;;;;;;;;205.40;2252.80;;;;;;5013855;28;20041;-77
2023/04/15 04:29:22;;;;;;;17.02;10.45;;;205.50;2252.80;;;;;;5013366;28;19905;-69
2023/04/15 04:31:48;;;;;;;;;;;205.50;2252.80;;;;;;5013692;28;20054;-69
2023/04/15 04:34:14;;;;;;;18.60;11.48;;;205.60;2252.80;;;;;;5013698;28;19906;-69
2023/04/15 04:36:40;;;;;;;20.55;12.50;;;205.70;2252.80;;;;;;5013401;28;20034;-70
2023/04/15 04:39:06;;;;;;;22.10;14.38;;;205.70;2252.80;;;;;;5013417;28;20026;-70
2023/04/15 04:41:32;;;;;;;20.60;12.52;;;230.40;2252.80;;;;;;5013318;28;20465;-70
2023/04/15 04:43:58;;;;;;;20.63;12.52;;;230.40;2252.80;;;;;;5013274;28;20039;-76
2023/04/15 04:46:24;;;;;;;19.95;11.90;;;230.50;2252.80;;;;;;5013172;28;20470;-70
2023/04/15 04:48:49;;;;;;;25.27;12.68;;;230.50;2252.80;;;;;;5016313;28;20060;-70
2023/04/15 04:51:15;;;;;;;;;;;230.40;2252.80;;;;;;5017705;28;20540;-76
2023/04/15 04:53:42;;;;;;;20.40;11.32;;;230.70;2252.80;;;;;;5017364;28;20275;-70
2023/04/15 04:56:08;;;;;;;22.67;12.90;;;230.70;2252.80;;;;;;5017164;28;20452;-69
2023/04/15 04:58:33;;;;;;;23.17;12.48;;;230.70;2252.80;;;;;;5017052;28;20105;-69
2023/04/15 05:00:59;;;;;;;;;;;230.70;2252.80;;;;;;5017262;28;20033;-69
2023/04/15 05:03:25;;;;;;;21.98;13.23;;;230.80;2252.80;;;;;;5017175;28;19912;-69
2023/04/15 05:05:50;;;;;;;22.23;12.85;;;230.90;2252.80;;;;;;5017277;28;20049;-69
2023/04/15 05:08:16;;;;;;;23.38;13.32;;;230.80;2252.80;;;;;;5017004;28;20092;-69
2023/04/15 05:10:42;;;;;;;25.80;14.43;;;230.80;2252.80;;;;;;5018062;28;20112;-69
2023/04/15 05:13:08;;;;;;;;;;;230.70;2252.80;;;;;;5032585;28;20061;-69
2023/04/15 05:15:35;;;;;;;22.98;13.45;;;230.80;2252.80;;;;;;5035410;28;19913;-69
2023/04/15 05:18:01;;;;;;;23.98;15.02;;;230.80;2252.80;;;;;;5043179;28;20485;-68
2023/04/15 05:20:27;;;;;;;25.33;14.25;;;230.80;2252.80;;;;;;5043872;28;20033;-71
2023/04/15 05:22:52;;;;;;;22.27;13.13;;;230.80;2252.80;;;;;;5039186;28;20021;-69
2023/04/15 05:25:18;;;;;;;20.65;12.48;;;230.70;2252.80;;;;;;5033106;28;20028;-69
2023/04/15 05:27:44;;;;;;;;;;;230.70;2252.80;;;;;;5037850;28;20025;-69
2023/04/15 05:30:10;;;;;;;22.38;11.70;;;230.80;2252.80;;;;;;5037330;28;19906;-69
2023/04/15 05:32:35;;;;;;;;;;;230.80;2252.80;;;;;;5021836;28;20054;-69
2023/04/15 05:35:01;;;;;;;24.63;13.38;;;230.90;2252.80;;;;;;5040362;28;20309;-70
2023/04/15 05:37:27;;;;;;;28.67;13.13;;;231.00;2252.80;;;;;;5038349;28;20477;-70
2023/04/15 05:39:53;;;;;;;23.73;12.68;;;231.00;2252.80;;;;;;5031178;28;20071;-69
2023/04/15 05:42:18;;;;;;;;;;;231.10;2252.80;;;;;;5025854;28;20018;-68
2023/04/15 05:44:44;;;;;;;21.95;13.10;;;231.20;2252.80;;;;;;5029247;28;20262;-69
2023/04/15 05:47:10;;;;;;;;;;;231.30;2252.80;;;;;;5039212;28;20124;-69
2023/04/15 05:49:36;;;;;;;18.17;10.98;;;256.00;2252.80;;;;;;5029186;28;19905;-68
2023/04/15 05:52:02;;;;;;;20.38;12.07;;;256.00;2252.80;;;;;;5038426;28;20030;-68
2023/04/15 05:54:27;;;;;;;;;;;256.20;2252.80;;;;;;5036172;28;20026;-68
2023/04/15 05:56:53;;;;;;;24.00;11.65;;;256.30;2252.80;;;;;;5033551;28;19905;-70
2023/04/15 05:59:19;;;;;;;19.13;11.20;;;256.30;2252.80;;;;;;5025543;28;20025;-69
2023/04/15 06:01:45;;;;;;;16.70;9.43;;;256.30;2252.80;;;;;;5037156;28;20104;-70
2023/04/15 06:04:10;;;;;;;;;;;256.50;2252.80;;;;;;5035213;28;20021;-70
2023/04/15 06:06:37;;;;;;;19.48;9.25;;;256.50;2252.80;;;;;;5032114;28;19909;-69
2023/04/15 06:09:03;;;;;;;15.02;8.05;;;256.60;2252.80;;;;;;5049911;28;20549;-69
2023/04/15 06:11:29;;;;;;;14.48;7.72;;;256.70;2252.80;;;;;;5037999;28;20034;-69
2023/04/15 06:13:55;;;;;;;12.20;7.65;;;256.80;2252.80;;;;;;5027444;28;20029;-70
2023/04/15 06:16:22;;;;;;;12.90;7.90;;;256.90;2252.80;;;;;;5026242;28;20065;-69
2023/04/15 06:18:48;;;;;;;20.50;8.70;;;281.60;2278.40;;;;;;5028432;28;20412;-69
2023/04/15 06:21:14;;;;;;;14.00;9.05;;;256.70;2252.80;;;;;;5034617;28;20034;-70
2023/04/15 06:23:40;;;;;;;13.77;9.05;;;281.70;2278.40;;;;;;5023437;28;20450;-70
2023/04/15 06:26:06;;;;;;;15.30;8.57;;;281.80;2278.40;;;;;;5034144;28;20121;-70
2023/04/15 06:28:32;;;;;;;;;;;281.90;2278.40;;;;;;5031426;28;20440;-73
2023/04/15 06:30:58;;;;;;;15.73;9.03;;;282.00;2278.40;;;;;;5024649;28;19921;-72
2023/04/15 06:33:23;;;;;;;17.75;8.85;;;282.10;2278.40;;;;;;5018199;28;20396;-71
2023/04/15 06:35:49;;;;;;;18.30;8.05;;;282.20;2278.40;;;;;;5035322;28;20405;-71
2023/04/15 06:38:15;;;;;;;14.73;8.32;;;282.40;2278.40;;;;;;5032616;28;20021;-72
2023/04/15 06:40:41;;;;;;;;;;;282.50;2278.40;;;;;;5036716;28;20032;-73
2023/04/15 06:43:08;;;;;;;11.60;7.05;;;307.20;2304.00;;;;;;5035657;28;19944;-74
2023/04/15 06:45:33;;;;;;;13.23;6.95;;;307.40;2304.00;;;;;;5029111;28;20476;-72
2023/04/15 06:47:59;;;;;;;14.27;6.75;;;307.60;2304.00;;;;;;5026038;28;20021;-72
2023/04/15 06:50:26;;;;;;;9.32;5.93;;;307.70;2304.00;;;;;;5035512;28;20086;-71
2023/04/15 06:52:53;;;;;;;10.48;5.65;;;307.80;2304.00;;;;;;5029577;28;20026;-70
2023/04/15 06:55:18;;;;;;;11.07;5.50;;;308.00;2304.00;;;;;;5030760;28;20096;-71
2023/04/15 06:57:44;;;;;;;10.73;5.63;;;308.10;2304.00;;;;;;5039528;28;20105;-75
2023/04/15 07:00:11;;;;;;;10.65;5.97;;;332.80;2329.60;;;;;;5050976;28;20040;-71
2023/04/15 07:02:37;;;;;;;16.55;6.40;;;332.90;2329.60;;;;;;5031847;28;20036;-71
2023/04/15 07:05:04;;;;;;;9.60;5.53;;;333.00;2329.60;;;;;;5035259;28;20461;-70
2023/04/15 07:07:30;;;;;;;11.18;5.45;;;333.10;2329.60;;;;;;5035217;28;20021;-70
2023/04/15 07:09:56;;;;;;;10.07;5.00;;;333.20;2329.60;;;;;;5045920;28;20028;-70
2023/04/15 07:12:21;;;;;;;12.02;5.30;;;333.40;2329.60;;;;;;5030746;28;20504;-72
2023/04/15 07:14:48;;;;;;;13.40;5.32;;;333.40;2329.60;;;;;;5034565;28;20025;-70
2023/04/15 07:17:14;;;;;;;11.32;6.00;;;333.70;2329.60;;;;;;5025923;28;20444;-72
2023/04/15 07:19:40;;;;;;;22.25;8.18;;;358.40;2329.60;;;;;;5031719;28;20053;-70
2023/04/15 07:22:06;;;;;;;14.50;7.03;;;358.50;2329.60;;;;;;5026705;28;20040;-69
2023/04/15 07:24:32;;;;;;;15.52;7.90;;;358.50;2329.60;;;;;;5036574;28;20036;-70
2023/04/15 07:26:58;;;;;;;13.77;6.35;;;358.60;2329.60;;;;;;5033784;28;20033;-70
2023/04/15 07:29:24;;;;;;;14.98;8.38;;;358.70;2329.60;;;;;;5024037;28;20063;-71
2023/04/15 07:31:50;;;;;;;6.95;3.83;;;358.70;2329.60;;;;;;5027197;28;20092;-68
2023/04/15 07:34:16;;;;;;;6.43;3.63;;;358.80;2329.60;;;;;;5046239;28;20060;-69
2023/04/15 07:36:42;;;;;;;10.07;4.00;;;358.80;2329.60;;;;;;5024505;28;20033;-69
2023/04/15 07:39:07;;;;;;;8.45;4.45;;;358.90;2329.60;;;;;;5022488;28;20018;-70
2023/04/15 07:41:33;;;;;;;8.30;3.53;;;358.90;2329.60;;;;;;5029188;28;20520;-70
2023/04/15 07:43:59;;;;;;;7.03;4.03;;;358.90;2329.60;;;;;;5026362;28;20033;-70
2023/04/15 07:46:26;;;;;;;11.95;5.60;;;359.00;2329.60;;;;;;5022771;28;20056;-73
2023/04/15 07:48:52;;;;;;;9.40;4.00;;;359.00;2329.60;;;;;;5031473;28;20026;-73
2023/04/15 07:51:19;;;;;;;13.55;5.93;;;359.20;2329.60;;;;;;5033813;28;20022;-71
2023/04/15 07:53:49;;;;;;;5.65;2.63;;;384.00;2329.60;;;;;;5042283;28;20381;-70
2023/04/15 07:56:15;;;;;;;12.35;6.80;;;384.00;2329.60;;;;;;5032117;28;20021;-70
2023/04/15 07:58:41;;;;;;;15.15;7.28;;;384.10;2329.60;;;;;;5036647;28;20025;-69
2023/04/15 08:01:07;;;;;;;6.82;2.70;;;384.00;2329.60;;;;;;5029938;28;20041;-70
2023/04/15 08:03:33;;;;;;;6.90;2.70;;;359.30;2329.60;;;;;;5039016;28;20044;-70
2023/04/15 08:05:59;;;;;;;3.63;1.73;;;359.30;2329.60;;;;;;5038775;28;20021;-70
2023/04/15 08:08:25;;;;;;;4.95;1.65;;;384.00;2329.60;;;;;;5030119;28;20469;-69
2023/04/15 08:10:51;;;;;;;4.35;2.10;;;384.00;2304.00;;;;;;5036105;28;20022;-70
2023/04/15 08:13:17;;;;;;;4.70;1.70;;;384.00;2329.60;;;;;;5030968;28;20033;-73
2023/04/15 08:15:43;;;;;;;8.18;2.63;;;384.00;2304.00;;;;;;5038661;28;20055;-72
2023/04/15 08:18:08;;;;;;;5.80;2.30;;;384.10;2329.60;;;;;;5035218;28;20061;-70
2023/04/15 08:20:34;;;;;;;4.65;2.65;;;384.20;2304.00;;;;;;5032714;28;20029;-70
2023/04/15 08:23:00;;;;;;;3.65;1.95;;;384.20;2201.60;;;;;;5032885;28;20075;-69
2023/04/15 08:25:26;;;;;;;7.68;2.00;;;384.20;2150.40;;;;;;5030302;28;20087;-69
2023/04/15 08:27:54;;;;;;;4.97;2.50;;;384.30;2227.20;;;;;;5034944;28;20032;-70
2023/04/15 08:30:20;;;;;;;5.20;2.05;;;384.30;2048.00;;;;;;5037364;28;20079;-69
2023/04/15 08:32:48;;;;;;;3.78;1.80;;;384.20;2022.40;;;;;;5033119;28;20053;-70
2023/04/15 08:35:14;;;;;;;3.42;1.85;;;384.20;1996.80;;;;;;5022178;28;20022;-70
2023/04/15 08:37:40;;;;;;;3.28;1.52;;;384.20;1920.00;;;;;;5026195;28;20032;-70
2023/04/15 08:40:07;;;;;;;10.18;3.03;;;384.30;2022.40;;;;;;5028792;28;20469;-73
2023/04/15 08:42:39;;;;;;;3.30;1.80;;;384.40;2099.20;;;;;;5035750;28;20017;-70
2023/04/15 08:45:08;;;;;;;3.85;1.50;;;384.40;1996.80;;;;;;5019659;28;20068;-71
2023/04/15 08:47:35;;;;;;;7.50;1.65;;;384.50;2022.40;;;;;;5025515;28;20018;-70
2023/04/15 08:50:03;;;;;;;3.60;1.90;;;384.60;2048.00;;;;;;5035071;28;20457;-70
2023/04/15 08:52:30;;;;;;;4.13;1.95;;;384.70;2099.20;;;;;;5035868;28;20041;-72
2023/04/15 08:54:57;;;;;;;6.97;2.35;;;384.60;2048.00;;;;;;5028852;28;20029;-70
2023/04/15 08:57:27;;;;;;;4.75;1.83;;;384.60;2022.40;;;;;;5037451;28;20083;-71
2023/04/15 08:59:56;;;;;;;3.10;1.20;;;384.80;1971.20;;;;;;5037505;28;20477;-74
2023/04/15 09:02:26;;;;;;;2.70;1.23;;;384.80;1868.80;;;;;;5045725;28;20064;-73
2023/04/15 09:04:52;;;;;;;2.83;1.58;;;409.60;1945.60;;;;;;5028336;28;20037;-75
2023/04/15 09:07:18;;;;;;;5.05;1.42;;;409.70;1894.40;;;;;;5032451;28;20112;-72
2023/04/15 09:09:43;;;;;;;5.35;1.95;;;409.70;1894.40;;;;;;5037207;28;20537;-71
2023/04/15 09:12:11;;;;;;;16.35;2.70;;;409.90;1894.40;;;;;;5025790;28;20040;-70
2023/04/15 09:14:39;;;;;;;8.90;1.90;;;410.10;2048.00;;;;;;5027437;28;20389;-74
2023/04/15 09:17:08;;;;;;;5.05;1.92;;;410.10;1817.60;;;;;;5023293;28;20477;-72
2023/04/15 09:19:34;;;;;;;6.95;2.20;;;410.20;1868.80;;;;;;5029381;28;20116;-73
2023/04/15 09:22:01;;;;;;;3.83;1.50;;;410.40;1843.20;;;;;;5020367;28;20161;-71
2023/04/15 09:24:39;;;;;;;7.18;2.35;;;435.20;1894.40;;;;;;5024830;28;20030;-70
2023/04/15 09:27:05;;;;;;;7.75;1.65;;;410.50;1843.20;;;;;;5048496;28;20025;-71
2023/04/15 09:29:31;;;;;;;5.97;1.90;;;435.20;1894.40;;;;;;5032132;28;20421;-70
2023/04/15 09:32:20;;;;;;;5.80;2.33;;;435.20;1894.40;;;;;;5042836;28;20067;-71
2023/04/15 09:34:46;;;;;;;3.97;1.52;;;435.30;1920.00;;;;;;5034160;28;20029;-70
2023/04/15 09:37:14;;;;;;;4.80;2.15;;;435.40;1868.80;;;;;;5028238;28;20470;-72
2023/04/15 09:39:51;;;;;;;3.63;1.70;;;435.60;2073.60;;;;;;5036741;28;20017;-72
2023/04/15 09:42:23;;;;;;;7.82;3.55;;;435.80;1894.40;;;;;;5027228;28;20018;-69
2023/04/15 09:44:50;;;;;;;6.97;2.72;;;435.80;1894.40;;;;;;5024969;28;20042;-71
2023/04/15 09:47:30;;;;;;;8.35;2.22;;;435.90;1766.40;;;;;;5030674;28;20021;-69
2023/04/15 09:50:00;;;;;;;3.40;1.90;;;436.00;1817.60;;;;;;5024522;28;20018;-71
2023/04/15 09:52:26;;;;;;;5.30;2.00;;;436.10;1715.20;;;;;;5038156;28;20743;-69
2023/04/15 09:54:58;;;;;;;3.75;1.55;;;436.10;1638.40;;;;;;5031584;28;20021;-70
2023/04/15 09:57:24;;;;;;;7.82;1.77;;;460.90;1715.20;;;;;;5036524;28;20029;-69
2023/04/15 09:59:51;;;;;;;3.17;1.20;;;460.90;1638.40;;;;;;5036315;28;20440;-71
2023/04/15 10:02:21;;;;;;;4.20;1.50;;;461.00;1587.20;;;;;;5033078;28;20115;-70
2023/04/15 10:04:48;;;;;;;3.50;1.52;;;461.20;1587.20;;;;;;5024057;28;20060;-69
2023/04/15 10:07:14;;;;;;;5.07;1.70;;;461.20;1587.20;;;;;;5035075;28;20048;-70
2023/04/15 10:09:40;;;;;;;6.95;1.92;;;461.00;1664.00;;;;;;5036303;28;20089;-70
2023/04/15 10:12:06;;;;;;;3.42;1.42;;;461.10;1638.40;;;;;;5031860;28;20053;-70
2023/04/15 10:14:34;;;;;;;6.97;1.30;;;461.20;1612.80;;;;;;5039113;28;20026;-70
2023/04/15 10:17:04;;;;;;;4.95;1.35;;;461.40;1638.40;;;;;;5026007;28;20470;-70
2023/04/15 10:19:36;;;;;;;2.70;1.45;;;461.50;1587.20;;;;;;5027069;28;20057;-70
2023/04/15 10:22:02;;;;;;;3.30;1.13;;;461.50;1536.00;;;;;;5032606;28;20017;-74
2023/04/15 10:24:30;;;;;;;4.13;1.75;;;461.40;1612.80;;;;;;5030178;28;20037;-71
2023/04/15 10:26:57;;;;;;;3.92;1.52;;;461.70;1561.60;;;;;;5033883;28;20029;-71
2023/04/15 10:29:26;;;;;;;3.60;1.10;;;486.50;1510.40;;;;;;5030867;28;20025;-73
2023/04/15 10:31:55;;;;;;;3.05;1.08;;;486.90;1510.40;;;;;;5033746;28;20049;-70
2023/04/15 10:34:23;;;;;;;1.55;0.90;;;486.70;1484.80;;;;;;5034535;28;20381;-70
2023/04/15 10:36:49;;;;;;;2.05;1.25;;;486.70;1510.40;;;;;;5031539;28;20644;-74
2023/04/15 10:39:33;;;;;;;3.15;1.40;;;486.40;1536.00;;;;;;5029818;28;20121;-73
2023/04/15 10:42:09;;;;;;;1.83;0.75;;;486.60;1459.20;;;;;;5030815;28;20022;-69
2023/04/15 10:44:40;;;;;;;2.13;1.13;;;487.00;1382.40;;;;;;5031439;28;20025;-74
2023/04/15 10:47:11;;;;;;;4.88;1.52;;;486.90;1356.80;;;;;;5031424;28;20115;-70
2023/04/15 10:49:46;;;;;;;3.88;1.42;;;486.70;1382.40;;;;;;5033380;28;20024;-68
2023/04/15 10:52:14;;;;;;;2.70;1.40;;;486.50;1459.20;;;;;;5037336;28;20059;-69
2023/04/15 10:54:40;;;;;;;2.42;1.10;;;486.60;1408.00;;;;;;5030059;28;20080;-68
2023/04/15 10:57:07;;;;;;;2.15;1.13;;;486.70;1382.40;;;;;;5046408;28;20029;-70
2023/04/15 10:59:57;;;;;;;4.20;1.45;;;486.70;1382.40;;;;;;5026235;28;20048;-69
2023/04/15 11:02:50;;;;;;;1.92;1.10;;;486.50;1459.20;;;;;;5029104;28;20073;-69
2023/04/15 11:05:17;;;;;;;3.03;1.30;;;461.60;1459.20;;;;;;5022934;28;20479;-70
2023/04/15 11:07:48;;;;;;;2.70;1.55;;;486.50;1433.60;;;;;;5031787;28;20049;-70
2023/04/15 11:10:16;;;;;;;3.67;1.35;;;487.00;1433.60;;;;;;5036568;28;20016;-70
2023/04/15 11:12:42;;;;;;;2.90;1.23;;;487.10;1459.20;;;;;;5029076;28;20041;-70
2023/04/15 11:15:33;;;;;;;1.63;1.20;;;512.20;1433.60;;;;;;5043937;28;20122;-73
2023/04/15 11:18:08;;;;;;;4.30;1.20;;;512.30;1433.60;;;;;;5034590;28;20377;-70
2023/04/15 11:20:35;;;;;;;1.35;0.95;;;512.50;1356.80;;;;;;5030667;28;20094;-70
2023/04/15 11:23:01;;;;;;;3.67;1.60;;;537.70;1331.20;;;;;;5029794;28;20056;-70
2023/04/15 11:25:29;;;;;;;2.10;1.20;;;512.60;1305.60;;;;;;5034578;28;20132;-71
2023/04/15 11:27:56;;;;;;;3.78;1.30;;;512.90;1305.60;;;;;;5026751;28;20021;-71
2023/04/15 11:30:23;;;;;;;1.38;0.98;;;537.90;1280.00;;;;;;5028166;28;20017;-70
2023/04/15 11:33:02;;;;;;;4.93;1.50;;;537.70;1280.00;;;;;;5035254;28;20053;-69
2023/04/15 11:35:29;;;;;;;4.13;1.25;;;512.10;1305.60;;;;;;5037523;28;20025;-69
2023/04/15 11:37:55;;;;;;;2.75;1.52;;;512.70;1280.00;;;;;;5029344;28;20061;-69
2023/04/15 11:40:28;;;;;;;14.10;6.85;;;512.90;1305.60;;;;;;5037179;28;20028;-69
2023/04/15 11:43:24;;;;;;;4.93;1.98;;;537.70;1305.60;;;;;;5041667;28;20163;-71
2023/04/15 11:46:00;;;;;;;5.15;2.63;;;537.80;1280.00;;;;;;5018044;28;20040;-70
2023/04/15 11:48:30;;;;;;;2.33;1.20;;;537.80;1280.00;;;;;;5022564;28;20026;-72
2023/04/15 11:50:58;;;;;;;2.70;1.40;;;512.80;1305.60;;;;;;5015635;28;20477;-73
2023/04/15 11:53:39;;;;;;;4.07;2.10;;;512.80;1331.20;;;;;;5016960;28;20034;-69
2023/04/15 11:56:06;;;;;;;2.72;1.67;;;537.80;1280.00;;;;;;5019149;28;20092;-75
2023/04/15 11:58:36;;;;;;;5.22;2.58;;;538.20;1254.40;;;;;;5015291;28;20026;-71
2023/04/15 12:01:02;;;;;;;4.22;1.70;;;538.20;1228.80;;;;;;5016166;28;20025;-72
2023/04/15 12:03:35;;;;;;;4.45;1.90;;;538.30;1280.00;;;;;;5016597;28;20177;-71
2023/04/15 12:06:13;;;;;;;3.08;1.60;;;538.30;1228.80;;;;;;5013300;28;20101;-72
2023/04/15 12:08:54;;;;;;;3.17;1.45;;;538.50;1203.20;;;;;;5018053;28;20038;-72
2023/04/15 12:11:25;;;;;;;3.22;1.45;;;538.20;1177.60;;;;;;5017811;28;20034;-70
2023/04/15 12:14:04;;;;;;;2.88;1.63;;;538.40;1203.20;;;;;;5020178;28;20116;-71
2023/04/15 12:16:30;;;;;;;1.85;0.80;;;538.50;1177.60;;;;;;5021889;28;20030;-71
2023/04/15 12:18:58;;;;;;;3.35;1.50;;;563.20;1203.20;;;;;;5018972;28;20096;-71